Terminal Aerodrome Forecast
Issued by NWS

Home | Current Version | Previous Version | Text Only | Print | Product List | Glossary Off
Versions: 1 2 3 4 5 6 7 8 9 10 11 12 13 14 15 16 17 18 19

367
FTUS43 KGRB 231306 AAB
TAFMTW
TAF AMD
KMTW 231306Z 2313/2412 27007KT P6SM SCT080
      TEMPO 2313/2315 5SM -SHRA BR FEW004 BKN070
     FM231500 31007KT P6SM SCT040 BKN100
     FM232000 35009KT P6SM VCTS BKN040CB
     FM240000 04006KT P6SM VCSH BKN035
     FM240300 01006KT P6SM SCT035
     FM240600 35007KT 5SM BR SCT004 OVC015
      TEMPO 2408/2412 2SM BR BKN004=

USA.gov is the U.S. government's official web portal to all federal, state and local government web resources and services.